sensor_id;sensor_type;location;lat;lon;timestamp;pressure;altitude;pressure_sealevel;temperature;humidity
57114;BME280;42994;51.606;9.988;2023-07-31T00:01:17;99097.16;;;14.80;100.00
57114;BME280;42994;51.606;9.988;2023-07-31T00:03:45;99090.97;;;14.73;100.00
57114;BME280;42994;51.606;9.988;2023-07-31T00:06:12;99086.97;;;14.83;100.00
57114;BME280;42994;51.606;9.988;2023-07-31T00:08:38;99082.78;;;14.87;100.00
57114;BME280;42994;51.606;9.988;2023-07-31T00:11:06;99076.47;;;14.99;100.00
57114;BME280;42994;51.606;9.988;2023-07-31T00:13:33;99071.88;;;15.00;100.00
57114;BME280;42994;51.606;9.988;2023-07-31T00:15:59;99059.66;;;14.66;100.00
57114;BME280;42994;51.606;9.988;2023-07-31T00:18:26;99065.00;;;14.72;100.00
57114;BME280;42994;51.606;9.988;2023-07-31T00:20:53;99058.13;;;15.08;100.00
57114;BME280;42994;51.606;9.988;2023-07-31T00:23:19;99047.44;;;14.95;100.00
57114;BME280;42994;51.606;9.988;2023-07-31T00:25:46;99050.38;;;14.87;100.00
57114;BME280;42994;51.606;9.988;2023-07-31T00:28:14;99044.88;;;15.00;100.00
57114;BME280;42994;51.606;9.988;2023-07-31T00:30:40;99044.06;;;15.25;100.00
57114;BME280;42994;51.606;9.988;2023-07-31T00:33:07;99030.03;;;15.16;100.00
57114;BME280;42994;51.606;9.988;2023-07-31T00:35:36;99025.16;;;15.25;100.00
57114;BME280;42994;51.606;9.988;2023-07-31T00:38:03;99004.00;;;15.22;100.00
57114;BME280;42994;51.606;9.988;2023-07-31T00:40:30;99005.13;;;15.14;100.00
57114;BME280;42994;51.606;9.988;2023-07-31T00:43:00;99009.97;;;15.05;100.00
57114;BME280;42994;51.606;9.988;2023-07-31T00:45:28;99012.28;;;15.02;100.00
57114;BME280;42994;51.606;9.988;2023-07-31T00:47:55;99000.19;;;15.29;100.00
57114;BME280;42994;51.606;9.988;2023-07-31T00:50:24;98993.16;;;15.03;100.00
57114;BME280;42994;51.606;9.988;2023-07-31T00:52:51;98994.00;;;14.78;100.00
57114;BME280;42994;51.606;9.988;2023-07-31T00:55:18;99002.69;;;15.06;100.00
57114;BME280;42994;51.606;9.988;2023-07-31T00:57:45;99004.94;;;14.58;100.00
57114;BME280;42994;51.606;9.988;2023-07-31T01:00:12;99005.13;;;14.57;100.00
57114;BME280;42994;51.606;9.988;2023-07-31T01:02:39;99018.25;;;14.47;100.00
57114;BME280;42994;51.606;9.988;2023-07-31T01:05:06;99028.16;;;14.53;100.00
57114;BME280;42994;51.606;9.988;2023-07-31T01:07:40;99024.94;;;14.76;100.00
57114;BME280;42994;51.606;9.988;2023-07-31T01:10:12;99013.31;;;14.75;100.00
57114;BME280;42994;51.606;9.988;2023-07-31T01:12:41;99018.56;;;14.95;100.00
57114;BME280;42994;51.606;9.988;2023-07-31T01:15:09;99002.84;;;14.54;100.00
57114;BME280;42994;51.606;9.988;2023-07-31T01:17:38;98996.00;;;14.58;100.00
57114;BME280;42994;51.606;9.988;2023-07-31T01:20:09;98994.34;;;14.57;100.00
57114;BME280;42994;51.606;9.988;2023-07-31T01:22:54;99008.13;;;14.74;100.00
57114;BME280;42994;51.606;9.988;2023-07-31T01:25:42;98995.63;;;14.48;100.00
57114;BME280;42994;51.606;9.988;2023-07-31T01:28:13;99000.25;;;14.72;100.00
57114;BME280;42994;51.606;9.988;2023-07-31T01:30:43;98983.38;;;14.52;100.00
57114;BME280;42994;51.606;9.988;2023-07-31T01:33:11;98994.31;;;14.89;100.00
57114;BME280;42994;51.606;9.988;2023-07-31T01:35:38;98979.03;;;14.83;100.00
57114;BME280;42994;51.606;9.988;2023-07-31T01:38:05;98968.59;;;14.61;100.00
57114;BME280;42994;51.606;9.988;2023-07-31T01:40:31;98970.41;;;14.92;100.00
57114;BME280;42994;51.606;9.988;2023-07-31T01:42:59;98962.66;;;14.77;100.00
57114;BME280;42994;51.606;9.988;2023-07-31T01:45:28;98964.69;;;14.50;100.00
57114;BME280;42994;51.606;9.988;2023-07-31T01:47:54;98959.50;;;14.49;100.00
57114;BME280;42994;51.606;9.988;2023-07-31T01:50:21;98955.28;;;14.66;100.00
57114;BME280;42994;51.606;9.988;2023-07-31T01:52:47;98958.66;;;14.55;100.00
57114;BME280;42994;51.606;9.988;2023-07-31T01:55:14;98960.78;;;14.46;100.00
57114;BME280;42994;51.606;9.988;2023-07-31T01:57:42;98961.59;;;14.47;100.00
57114;BME280;42994;51.606;9.988;2023-07-31T02:00:11;98958.47;;;14.50;100.00
57114;BME280;42994;51.606;9.988;2023-07-31T02:02:37;98951.00;;;14.52;100.00
57114;BME280;42994;51.606;9.988;2023-07-31T02:05:04;98959.22;;;14.64;100.00
57114;BME280;42994;51.606;9.988;2023-07-31T02:07:31;98947.03;;;14.54;100.00
57114;BME280;42994;51.606;9.988;2023-07-31T02:09:58;98955.19;;;14.48;100.00
57114;BME280;42994;51.606;9.988;2023-07-31T02:12:24;98947.00;;;14.61;100.00
57114;BME280;42994;51.606;9.988;2023-07-31T02:14:51;98944.09;;;14.56;100.00
57114;BME280;42994;51.606;9.988;2023-07-31T02:17:19;98937.09;;;14.55;100.00
57114;BME280;42994;51.606;9.988;2023-07-31T02:19:46;98939.94;;;14.60;100.00
57114;BME280;42994;51.606;9.988;2023-07-31T02:22:13;98934.34;;;14.61;100.00
57114;BME280;42994;51.606;9.988;2023-07-31T02:24:39;98932.75;;;14.79;100.00
57114;BME280;42994;51.606;9.988;2023-07-31T02:27:06;98943.97;;;14.76;100.00
57114;BME280;42994;51.606;9.988;2023-07-31T02:29:32;98933.75;;;14.59;100.00
57114;BME280;42994;51.606;9.988;2023-07-31T02:31:59;98937.78;;;14.75;100.00
57114;BME280;42994;51.606;9.988;2023-07-31T02:34:27;98934.31;;;14.68;100.00
57114;BME280;42994;51.606;9.988;2023-07-31T02:36:54;98935.63;;;14.59;100.00
57114;BME280;42994;51.606;9.988;2023-07-31T02:39:20;98927.84;;;14.69;100.00
57114;BME280;42994;51.606;9.988;2023-07-31T02:41:47;98921.41;;;14.70;100.00
57114;BME280;42994;51.606;9.988;2023-07-31T02:44:13;98939.94;;;14.60;100.00
57114;BME280;42994;51.606;9.988;2023-07-31T02:46:40;98933.78;;;14.78;100.00
57114;BME280;42994;51.606;9.988;2023-07-31T02:49:07;98920.22;;;14.66;100.00
57114;BME280;42994;51.606;9.988;2023-07-31T02:51:35;98929.28;;;14.72;100.00
57114;BME280;42994;51.606;9.988;2023-07-31T02:54:01;98906.38;;;14.81;100.00
57114;BME280;42994;51.606;9.988;2023-07-31T02:56:28;98909.19;;;14.68;100.00
57114;BME280;42994;51.606;9.988;2023-07-31T02:58:55;98921.72;;;14.55;100.00
57114;BME280;42994;51.606;9.988;2023-07-31T03:01:21;98921.81;;;14.74;100.00
57114;BME280;42994;51.606;9.988;2023-07-31T03:03:48;98931.88;;;14.60;100.00
57114;BME280;42994;51.606;9.988;2023-07-31T03:06:14;98940.59;;;14.55;100.00
57114;BME280;42994;51.606;9.988;2023-07-31T03:08:42;98930.78;;;14.68;100.00
57114;BME280;42994;51.606;9.988;2023-07-31T03:11:09;98928.47;;;14.71;100.00
57114;BME280;42994;51.606;9.988;2023-07-31T03:13:35;98927.75;;;14.57;100.00
57114;BME280;42994;51.606;9.988;2023-07-31T03:16:02;98934.94;;;14.64;100.00
57114;BME280;42994;51.606;9.988;2023-07-31T03:18:29;98940.41;;;14.50;100.00
57114;BME280;42994;51.606;9.988;2023-07-31T03:20:56;98938.53;;;14.51;100.00
57114;BME280;42994;51.606;9.988;2023-07-31T03:23:22;98935.84;;;14.57;100.00
57114;BME280;42994;51.606;9.988;2023-07-31T03:25:58;98936.69;;;14.51;100.00
57114;BME280;42994;51.606;9.988;2023-07-31T03:28:29;98939.78;;;14.55;100.00
57114;BME280;42994;51.606;9.988;2023-07-31T03:30:55;98928.44;;;14.46;100.00
57114;BME280;42994;51.606;9.988;2023-07-31T03:33:22;98936.69;;;14.51;100.00
57114;BME280;42994;51.606;9.988;2023-07-31T03:35:50;98941.03;;;14.59;100.00
57114;BME280;42994;51.606;9.988;2023-07-31T03:38:16;98934.13;;;14.63;100.00
57114;BME280;42994;51.606;9.988;2023-07-31T03:40:43;98948.47;;;14.57;100.00
57114;BME280;42994;51.606;9.988;2023-07-31T03:43:13;98949.50;;;14.63;100.00
57114;BME280;42994;51.606;9.988;2023-07-31T03:45:39;98942.66;;;14.60;100.00
57114;BME280;42994;51.606;9.988;2023-07-31T03:48:06;98944.53;;;14.59;100.00
57114;BME280;42994;51.606;9.988;2023-07-31T03:50:34;98948.47;;;14.57;100.00
57114;BME280;42994;51.606;9.988;2023-07-31T03:53:00;98951.97;;;14.64;100.00
57114;BME280;42994;51.606;9.988;2023-07-31T03:55:27;98952.63;;;14.59;100.00
57114;BME280;42994;51.606;9.988;2023-07-31T03:57:53;98954.88;;;14.63;100.00
57114;BME280;42994;51.606;9.988;2023-07-31T04:00:21;98953.41;;;14.67;100.00
57114;BME280;42994;51.606;9.988;2023-07-31T04:02:48;98955.50;;;14.65;100.00
57114;BME280;42994;51.606;9.988;2023-07-31T04:05:15;98951.53;;;14.67;100.00
57114;BME280;42994;51.606;9.988;2023-07-31T04:07:41;98951.69;;;14.72;100.00
57114;BME280;42994;51.606;9.988;2023-07-31T04:10:08;98953.00;;;14.63;100.00
57114;BME280;42994;51.606;9.988;2023-07-31T04:12:35;98961.09;;;14.63;100.00
57114;BME280;42994;51.606;9.988;2023-07-31T04:15:02;98953.78;;;14.70;100.00
57114;BME280;42994;51.606;9.988;2023-07-31T04:17:30;98958.38;;;14.70;100.00
57114;BME280;42994;51.606;9.988;2023-07-31T04:19:57;98947.44;;;14.83;100.00
57114;BME280;42994;51.606;9.988;2023-07-31T04:22:24;98947.28;;;14.78;100.00
57114;BME280;42994;51.606;9.988;2023-07-31T04:24:50;98941.47;;;14.81;100.00
57114;BME280;42994;51.606;9.988;2023-07-31T04:27:17;98944.53;;;14.85;100.00
57114;BME280;42994;51.606;9.988;2023-07-31T04:29:43;98945.13;;;14.87;100.00
57114;BME280;42994;51.606;9.988;2023-07-31T04:32:12;98938.06;;;14.86;100.00
57114;BME280;42994;51.606;9.988;2023-07-31T04:34:42;98937.88;;;14.87;100.00
57114;BME280;42994;51.606;9.988;2023-07-31T04:37:09;98927.84;;;14.94;100.00
57114;BME280;42994;51.606;9.988;2023-07-31T04:39:35;98915.41;;;14.93;100.00
57114;BME280;42994;51.606;9.988;2023-07-31T04:42:02;98916.16;;;15.01;100.00
57114;BME280;42994;51.606;9.988;2023-07-31T04:44:29;98920.59;;;14.95;100.00
57114;BME280;42994;51.606;9.988;2023-07-31T04:46:55;98915.03;;;14.90;100.00
57114;BME280;42994;51.606;9.988;2023-07-31T04:49:22;98927.63;;;14.96;100.00
57114;BME280;42994;51.606;9.988;2023-07-31T04:51:50;98933.69;;;14.91;100.00
57114;BME280;42994;51.606;9.988;2023-07-31T04:54:17;98940.34;;;14.89;100.00
57114;BME280;42994;51.606;9.988;2023-07-31T04:56:43;98936.47;;;15.03;100.00
57114;BME280;42994;51.606;9.988;2023-07-31T04:59:10;98930.69;;;14.99;100.00
57114;BME280;42994;51.606;9.988;2023-07-31T05:01:36;98925.09;;;15.01;100.00
57114;BME280;42994;51.606;9.988;2023-07-31T05:04:03;98926.34;;;14.98;100.00
57114;BME280;42994;51.606;9.988;2023-07-31T05:06:30;98918.63;;;15.02;100.00
57114;BME280;42994;51.606;9.988;2023-07-31T05:08:58;98916.97;;;15.01;100.00
57114;BME280;42994;51.606;9.988;2023-07-31T05:11:24;98912.78;;;15.05;100.00
57114;BME280;42994;51.606;9.988;2023-07-31T05:13:51;98908.88;;;15.01;100.00
57114;BME280;42994;51.606;9.988;2023-07-31T05:16:17;98912.41;;;15.02;100.00
57114;BME280;42994;51.606;9.988;2023-07-31T05:18:44;98923.88;;;14.97;100.00
57114;BME280;42994;51.606;9.988;2023-07-31T05:21:10;98923.78;;;15.04;100.00
57114;BME280;42994;51.606;9.988;2023-07-31T05:23:37;98926.13;;;15.18;100.00
57114;BME280;42994;51.606;9.988;2023-07-31T05:26:06;98908.91;;;15.19;100.00
57114;BME280;42994;51.606;9.988;2023-07-31T05:28:34;98904.41;;;15.13;100.00
57114;BME280;42994;51.606;9.988;2023-07-31T05:31:01;98911.00;;;15.17;100.00
57114;BME280;42994;51.606;9.988;2023-07-31T05:33:28;98898.91;;;15.20;100.00
57114;BME280;42994;51.606;9.988;2023-07-31T05:35:55;98877.25;;;15.27;100.00
57114;BME280;42994;51.606;9.988;2023-07-31T05:38:21;98882.50;;;15.22;100.00
57114;BME280;42994;51.606;9.988;2023-07-31T05:40:48;98880.09;;;15.32;100.00
57114;BME280;42994;51.606;9.988;2023-07-31T05:43:16;98865.16;;;15.29;100.00
57114;BME280;42994;51.606;9.988;2023-07-31T05:45:43;98868.72;;;15.30;100.00
57114;BME280;42994;51.606;9.988;2023-07-31T05:48:09;98853.63;;;15.41;100.00
57114;BME280;42994;51.606;9.988;2023-07-31T05:50:36;98853.63;;;15.41;100.00
57114;BME280;42994;51.606;9.988;2023-07-31T05:53:04;98846.72;;;15.45;100.00
57114;BME280;42994;51.606;9.988;2023-07-31T05:55:31;98838.47;;;15.40;100.00
57114;BME280;42994;51.606;9.988;2023-07-31T05:57:57;98833.78;;;15.47;100.00
57114;BME280;42994;51.606;9.988;2023-07-31T06:00:25;98844.75;;;15.52;100.00
57114;BME280;42994;51.606;9.988;2023-07-31T06:02:52;98839.78;;;15.49;100.00
57114;BME280;42994;51.606;9.988;2023-07-31T06:05:19;98844.97;;;15.50;100.00
57114;BME280;42994;51.606;9.988;2023-07-31T06:07:46;98841.31;;;15.45;100.00
57114;BME280;42994;51.606;9.988;2023-07-31T06:10:12;98831.09;;;15.47;100.00
57114;BME280;42994;51.606;9.988;2023-07-31T06:12:39;98837.09;;;15.49;100.00
57114;BME280;42994;51.606;9.988;2023-07-31T06:15:06;98831.38;;;15.57;100.00
57114;BME280;42994;51.606;9.988;2023-07-31T06:17:34;98830.09;;;15.60;100.00
57114;BME280;42994;51.606;9.988;2023-07-31T06:20:01;98815.66;;;15.66;100.00
57114;BME280;42994;51.606;9.988;2023-07-31T06:22:30;98817.91;;;15.69;100.00
57114;BME280;42994;51.606;9.988;2023-07-31T06:24:57;98820.91;;;15.79;100.00
57114;BME280;42994;51.606;9.988;2023-07-31T06:27:23;98821.03;;;15.84;100.00
57114;BME280;42994;51.606;9.988;2023-07-31T06:29:51;98811.56;;;15.93;100.00
57114;BME280;42994;51.606;9.988;2023-07-31T06:32:17;98819.78;;;15.99;100.00
57114;BME280;42994;51.606;9.988;2023-07-31T06:34:46;98824.50;;;16.03;100.00
57114;BME280;42994;51.606;9.988;2023-07-31T06:37:13;98816.75;;;16.07;100.00
57114;BME280;42994;51.606;9.988;2023-07-31T06:39:39;98827.34;;;16.08;100.00
57114;BME280;42994;51.606;9.988;2023-07-31T06:42:06;98813.59;;;16.10;100.00
57114;BME280;42994;51.606;9.988;2023-07-31T06:44:33;98816.53;;;16.08;100.00
57114;BME280;42994;51.606;9.988;2023-07-31T06:46:59;98808.41;;;16.08;100.00
57114;BME280;42994;51.606;9.988;2023-07-31T06:49:26;98811.22;;;16.13;100.00
57114;BME280;42994;51.606;9.988;2023-07-31T06:51:54;98817.47;;;16.14;100.00
57114;BME280;42994;51.606;9.988;2023-07-31T06:54:20;98811.22;;;16.13;100.00
57114;BME280;42994;51.606;9.988;2023-07-31T06:56:47;98816.03;;;16.11;100.00
57114;BME280;42994;51.606;9.988;2023-07-31T06:59:13;98805.94;;;16.07;100.00
57114;BME280;42994;51.606;9.988;2023-07-31T07:01:40;98803.91;;;16.02;100.00
57114;BME280;42994;51.606;9.988;2023-07-31T07:04:07;98808.16;;;15.98;100.00
57114;BME280;42994;51.606;9.988;2023-07-31T07:06:33;98804.03;;;15.95;100.00
57114;BME280;42994;51.606;9.988;2023-07-31T07:09:01;98802.38;;;15.94;100.00
57114;BME280;42994;51.606;9.988;2023-07-31T07:11:28;98809.09;;;15.92;100.00
57114;BME280;42994;51.606;9.988;2023-07-31T07:13:55;98811.56;;;15.93;100.00
57114;BME280;42994;51.606;9.988;2023-07-31T07:16:21;98798.63;;;15.95;100.00
57114;BME280;42994;51.606;9.988;2023-07-31T07:18:48;98799.81;;;16.00;100.00
57114;BME280;42994;51.606;9.988;2023-07-31T07:21:15;98796.75;;;16.08;100.00
57114;BME280;42994;51.606;9.988;2023-07-31T07:23:43;98810.03;;;16.09;100.00
57114;BME280;42994;51.606;9.988;2023-07-31T07:26:11;98806.88;;;16.12;100.00
57114;BME280;42994;51.606;9.988;2023-07-31T07:28:37;98811.34;;;16.19;100.00
57114;BME280;42994;51.606;9.988;2023-07-31T07:31:04;98813.25;;;16.18;100.00
57114;BME280;42994;51.606;9.988;2023-07-31T07:33:31;98803.25;;;16.19;100.00
57114;BME280;42994;51.606;9.988;2023-07-31T07:36:00;98797.97;;;16.24;100.00
57114;BME280;42994;51.606;9.988;2023-07-31T07:38:26;98812.44;;;16.29;100.00
57114;BME280;42994;51.606;9.988;2023-07-31T07:40:53;98810.75;;;16.17;100.00
57114;BME280;42994;51.606;9.988;2023-07-31T07:43:21;98810.53;;;16.06;100.00
57114;BME280;42994;51.606;9.988;2023-07-31T07:45:48;98820.28;;;16.07;100.00
57114;BME280;42994;51.606;9.988;2023-07-31T07:48:14;98826.63;;;16.01;100.00
57114;BME280;42994;51.606;9.988;2023-07-31T07:50:42;98829.78;;;15.98;100.00
57114;BME280;42994;51.606;9.988;2023-07-31T07:53:09;98830.59;;;15.99;100.00
57114;BME280;42994;51.606;9.988;2023-07-31T07:55:35;98836.78;;;15.87;100.00
57114;BME280;42994;51.606;9.988;2023-07-31T07:58:02;98849.16;;;15.65;100.00
57114;BME280;42994;51.606;9.988;2023-07-31T08:00:30;98867.09;;;15.78;100.00
57114;BME280;42994;51.606;9.988;2023-07-31T08:02:56;98872.94;;;15.74;100.00
57114;BME280;42994;51.606;9.988;2023-07-31T08:05:23;98878.75;;;15.71;100.00
57114;BME280;42994;51.606;9.988;2023-07-31T08:07:50;98881.25;;;15.73;100.00
57114;BME280;42994;51.606;9.988;2023-07-31T08:10:17;98893.09;;;15.90;100.00
57114;BME280;42994;51.606;9.988;2023-07-31T08:12:43;98889.03;;;16.00;100.00
57114;BME280;42994;51.606;9.988;2023-07-31T08:15:10;98883.22;;;16.26;100.00
57114;BME280;42994;51.606;9.988;2023-07-31T08:17:38;98877.63;;;16.63;100.00
57114;BME280;42994;51.606;9.988;2023-07-31T08:20:06;98876.03;;;16.98;100.00
57114;BME280;42994;51.606;9.988;2023-07-31T08:22:33;98871.50;;;16.68;100.00
57114;BME280;42994;51.606;9.988;2023-07-31T08:24:59;98877.66;;;16.99;100.00
57114;BME280;42994;51.606;9.988;2023-07-31T08:27:26;98864.69;;;17.01;100.00
57114;BME280;42994;51.606;9.988;2023-07-31T08:29:52;98855.84;;;16.82;100.00
57114;BME280;42994;51.606;9.988;2023-07-31T08:32:19;98855.03;;;16.58;100.00
57114;BME280;42994;51.606;9.988;2023-07-31T08:34:47;98856.31;;;16.55;100.00
57114;BME280;42994;51.606;9.988;2023-07-31T08:37:14;98856.91;;;16.81;100.00
57114;BME280;42994;51.606;9.988;2023-07-31T08:39:41;98856.44;;;16.48;100.00
57114;BME280;42994;51.606;9.988;2023-07-31T08:42:08;98840.41;;;16.35;100.00
57114;BME280;42994;51.606;9.988;2023-07-31T08:44:36;98843.47;;;16.39;100.00
57114;BME280;42994;51.606;9.988;2023-07-31T08:47:04;98853.47;;;16.50;100.00
57114;BME280;42994;51.606;9.988;2023-07-31T08:49:31;98843.00;;;16.53;100.00
57114;BME280;42994;51.606;9.988;2023-07-31T08:52:00;98835.25;;;16.33;100.00
57114;BME280;42994;51.606;9.988;2023-07-31T08:54:26;98833.84;;;16.55;100.00
57114;BME280;42994;51.606;9.988;2023-07-31T08:56:56;98834.09;;;16.53;100.00
57114;BME280;42994;51.606;9.988;2023-07-31T08:59:23;98826.69;;;16.60;100.00
57114;BME280;42994;51.606;9.988;2023-07-31T09:01:53;98813.38;;;16.59;100.00
57114;BME280;42994;51.606;9.988;2023-07-31T09:04:21;98812.91;;;16.73;100.00
57114;BME280;42994;51.606;9.988;2023-07-31T09:06:49;98808.91;;;16.52;100.00
57114;BME280;42994;51.606;9.988;2023-07-31T09:09:19;98822.22;;;16.54;100.00
57114;BME280;42994;51.606;9.988;2023-07-31T09:11:46;98825.63;;;16.49;100.00
57114;BME280;42994;51.606;9.988;2023-07-31T09:14:13;98834.31;;;16.40;100.00
57114;BME280;42994;51.606;9.988;2023-07-31T09:16:52;98839.00;;;16.44;100.00
57114;BME280;42994;51.606;9.988;2023-07-31T09:19:25;98840.22;;;16.60;100.00
57114;BME280;42994;51.606;9.988;2023-07-31T09:21:52;98841.75;;;16.80;100.00
57114;BME280;42994;51.606;9.988;2023-07-31T09:24:26;98843.28;;;16.76;100.00
57114;BME280;42994;51.606;9.988;2023-07-31T09:26:54;98818.91;;;16.64;100.00
57114;BME280;42994;51.606;9.988;2023-07-31T09:29:22;98810.69;;;16.70;100.00
57114;BME280;42994;51.606;9.988;2023-07-31T09:31:48;98800.78;;;16.64;100.00
57114;BME280;42994;51.606;9.988;2023-07-31T09:34:15;98790.66;;;16.71;100.00
57114;BME280;42994;51.606;9.988;2023-07-31T09:36:42;98787.03;;;16.89;100.00
57114;BME280;42994;51.606;9.988;2023-07-31T09:39:09;98778.03;;;17.13;100.00
57114;BME280;42994;51.606;9.988;2023-07-31T09:41:38;98782.28;;;17.37;100.00
57114;BME280;42994;51.606;9.988;2023-07-31T09:44:05;98754.41;;;17.54;100.00
57114;BME280;42994;51.606;9.988;2023-07-31T09:46:32;98748.78;;;17.72;100.00
57114;BME280;42994;51.606;9.988;2023-07-31T09:49:07;98732.72;;;17.54;100.00
57114;BME280;42994;51.606;9.988;2023-07-31T09:51:35;98744.09;;;17.84;100.00
57114;BME280;42994;51.606;9.988;2023-07-31T09:54:10;98714.44;;;17.61;100.00
57114;BME280;42994;51.606;9.988;2023-07-31T09:56:42;98720.41;;;17.63;100.00
57114;BME280;42994;51.606;9.988;2023-07-31T09:59:11;98711.91;;;17.71;100.00
57114;BME280;42994;51.606;9.988;2023-07-31T10:01:40;98715.31;;;17.49;100.00
57114;BME280;42994;51.606;9.988;2023-07-31T10:04:07;98704.81;;;17.36;100.00
57114;BME280;42994;51.606;9.988;2023-07-31T10:06:35;98715.47;;;17.43;100.00
57114;BME280;42994;51.606;9.988;2023-07-31T10:09:05;98714.19;;;17.45;100.00
57114;BME280;42994;51.606;9.988;2023-07-31T10:11:34;98713.09;;;17.46;100.00
57114;BME280;42994;51.606;9.988;2023-07-31T10:14:04;98713.34;;;17.45;100.00
57114;BME280;42994;51.606;9.988;2023-07-31T10:16:32;98715.75;;;17.75;100.00
57114;BME280;42994;51.606;9.988;2023-07-31T10:18:59;98711.06;;;17.54;100.00
57114;BME280;42994;51.606;9.988;2023-07-31T10:21:26;98711.47;;;17.79;100.00
57114;BME280;42994;51.606;9.988;2023-07-31T10:23:53;98698.44;;;17.76;100.00
57114;BME280;42994;51.606;9.988;2023-07-31T10:26:23;98692.25;;;17.81;100.00
57114;BME280;42994;51.606;9.988;2023-07-31T10:28:52;98696.88;;;18.14;100.00
57114;BME280;42994;51.606;9.988;2023-07-31T10:31:21;98682.09;;;18.44;100.00
57114;BME280;42994;51.606;9.988;2023-07-31T10:33:49;98675.84;;;18.43;100.00
57114;BME280;42994;51.606;9.988;2023-07-31T10:36:18;98672.22;;;18.38;100.00
57114;BME280;42994;51.606;9.988;2023-07-31T10:38:45;98662.06;;;18.28;100.00
57114;BME280;42994;51.606;9.988;2023-07-31T10:41:11;98663.28;;;18.37;100.00
57114;BME280;42994;51.606;9.988;2023-07-31T10:43:38;98646.13;;;18.32;100.00
57114;BME280;42994;51.606;9.988;2023-07-31T10:46:08;98653.44;;;18.53;100.00
57114;BME280;42994;51.606;9.988;2023-07-31T10:48:38;98665.38;;;18.74;100.00
57114;BME280;42994;51.606;9.988;2023-07-31T10:51:08;98654.91;;;18.61;100.00
57114;BME280;42994;51.606;9.988;2023-07-31T10:53:36;98663.09;;;18.66;100.00
57114;BME280;42994;51.606;9.988;2023-07-31T10:56:03;98649.28;;;18.68;100.00
57114;BME280;42994;51.606;9.988;2023-07-31T10:58:31;98664.00;;;18.94;100.00
57114;BME280;42994;51.606;9.988;2023-07-31T11:00:59;98652.44;;;18.81;100.00
57114;BME280;42994;51.606;9.988;2023-07-31T11:03:40;98657.63;;;18.83;100.00
57114;BME280;42994;51.606;9.988;2023-07-31T11:06:08;98651.78;;;18.52;100.00
57114;BME280;42994;51.606;9.988;2023-07-31T11:08:38;98652.00;;;18.46;100.00
57114;BME280;42994;51.606;9.988;2023-07-31T11:11:09;98691.00;;;18.61;100.00
57114;BME280;42994;51.606;9.988;2023-07-31T11:13:44;98678.44;;;18.99;100.00
57114;BME280;42994;51.606;9.988;2023-07-31T11:16:12;98672.91;;;19.16;100.00
57114;BME280;42994;51.606;9.988;2023-07-31T11:18:39;98661.03;;;19.23;100.00
57114;BME280;42994;51.606;9.988;2023-07-31T11:21:11;98659.13;;;19.23;100.00
57114;BME280;42994;51.606;9.988;2023-07-31T11:23:38;98665.00;;;19.10;100.00
57114;BME280;42994;51.606;9.988;2023-07-31T11:26:05;98660.91;;;18.85;100.00
57114;BME280;42994;51.606;9.988;2023-07-31T11:28:33;98655.59;;;18.95;100.00
57114;BME280;42994;51.606;9.988;2023-07-31T11:31:00;98656.72;;;18.99;100.00
57114;BME280;42994;51.606;9.988;2023-07-31T11:33:27;98654.41;;;18.64;100.00
57114;BME280;42994;51.606;9.988;2023-07-31T11:35:53;98653.19;;;18.55;100.00
57114;BME280;42994;51.606;9.988;2023-07-31T11:38:26;98644.22;;;18.98;100.00
57114;BME280;42994;51.606;9.988;2023-07-31T11:40:53;98641.06;;;18.62;100.00
57114;BME280;42994;51.606;9.988;2023-07-31T11:43:21;98648.41;;;18.84;100.00
57114;BME280;42994;51.606;9.988;2023-07-31T11:45:49;98637.09;;;18.92;100.00
57114;BME280;42994;51.606;9.988;2023-07-31T11:48:20;98632.16;;;18.67;100.00
57114;BME280;42994;51.606;9.988;2023-07-31T11:50:48;98636.34;;;18.75;100.00
57114;BME280;42994;51.606;9.988;2023-07-31T11:53:17;98637.56;;;18.62;100.00
57114;BME280;42994;51.606;9.988;2023-07-31T11:55:46;98631.84;;;18.63;100.00
57114;BME280;42994;51.606;9.988;2023-07-31T11:58:15;98630.16;;;18.57;100.00
57114;BME280;42994;51.606;9.988;2023-07-31T12:00:42;98635.50;;;18.52;100.00
57114;BME280;42994;51.606;9.988;2023-07-31T12:03:09;98630.28;;;18.68;100.00
57114;BME280;42994;51.606;9.988;2023-07-31T12:05:37;98623.78;;;18.47;100.00
57114;BME280;42994;51.606;9.988;2023-07-31T12:08:08;98608.00;;;18.66;100.00
57114;BME280;42994;51.606;9.988;2023-07-31T12:10:36;98623.03;;;18.51;100.00
57114;BME280;42994;51.606;9.988;2023-07-31T12:13:05;98619.28;;;18.57;100.00
57114;BME280;42994;51.606;9.988;2023-07-31T12:15:33;98607.81;;;18.28;100.00
57114;BME280;42994;51.606;9.988;2023-07-31T12:18:01;98626.94;;;18.60;100.00
57114;BME280;42994;51.606;9.988;2023-07-31T12:20:30;98612.50;;;18.55;100.00
57114;BME280;42994;51.606;9.988;2023-07-31T12:22:56;98614.63;;;18.75;100.00
57114;BME280;42994;51.606;9.988;2023-07-31T12:25:28;98618.50;;;19.06;100.00
57114;BME280;42994;51.606;9.988;2023-07-31T12:27:55;98613.63;;;18.59;100.00
57114;BME280;42994;51.606;9.988;2023-07-31T12:30:32;98616.03;;;18.33;100.00
57114;BME280;42994;51.606;9.988;2023-07-31T12:33:03;98609.78;;;18.33;100.00
57114;BME280;42994;51.606;9.988;2023-07-31T12:35:35;98624.00;;;18.40;100.00
57114;BME280;42994;51.606;9.988;2023-07-31T12:38:01;98623.91;;;18.35;100.00
57114;BME280;42994;51.606;9.988;2023-07-31T12:40:28;98622.41;;;18.44;100.00
57114;BME280;42994;51.606;9.988;2023-07-31T12:42:55;98621.94;;;18.30;100.00
57114;BME280;42994;51.606;9.988;2023-07-31T12:45:21;98632.06;;;17.96;100.00
57114;BME280;42994;51.606;9.988;2023-07-31T12:47:50;98619.66;;;18.00;100.00
57114;BME280;42994;51.606;9.988;2023-07-31T12:50:16;98635.19;;;18.27;100.00
57114;BME280;42994;51.606;9.988;2023-07-31T12:52:43;98636.50;;;17.85;100.00